sensor_id;sensor_type;location;lat;lon;timestamp;pressure;altitude;pressure_sealevel;temperature
37536;BMP180;23379;51.554;6.736;2023-10-19T00:01:10;98918.00;;;11.60
37536;BMP180;23379;51.554;6.736;2023-10-19T00:03:37;98948.00;;;11.70
37536;BMP180;23379;51.554;6.736;2023-10-19T00:06:03;98940.00;;;12.00
37536;BMP180;23379;51.554;6.736;2023-10-19T00:08:30;98910.00;;;11.80
37536;BMP180;23379;51.554;6.736;2023-10-19T00:11:16;98889.00;;;11.90
37536;BMP180;23379;51.554;6.736;2023-10-19T00:13:49;98937.00;;;11.90
37536;BMP180;23379;51.554;6.736;2023-10-19T00:16:15;98895.00;;;12.00
37536;BMP180;23379;51.554;6.736;2023-10-19T00:18:48;98935.00;;;12.00
37536;BMP180;23379;51.554;6.736;2023-10-19T00:21:14;98923.00;;;12.00
37536;BMP180;23379;51.554;6.736;2023-10-19T00:23:51;98920.00;;;12.00
37536;BMP180;23379;51.554;6.736;2023-10-19T00:26:18;98846.00;;;12.00
37536;BMP180;23379;51.554;6.736;2023-10-19T00:28:45;98862.00;;;12.10
37536;BMP180;23379;51.554;6.736;2023-10-19T00:31:13;98917.00;;;12.00
37536;BMP180;23379;51.554;6.736;2023-10-19T00:33:39;98899.00;;;11.90
37536;BMP180;23379;51.554;6.736;2023-10-19T00:36:05;98903.00;;;12.00
37536;BMP180;23379;51.554;6.736;2023-10-19T00:38:41;98897.00;;;11.90
37536;BMP180;23379;51.554;6.736;2023-10-19T00:41:21;98902.00;;;12.00
37536;BMP180;23379;51.554;6.736;2023-10-19T00:43:50;98897.00;;;12.00
37536;BMP180;23379;51.554;6.736;2023-10-19T00:46:19;98891.00;;;12.10
37536;BMP180;23379;51.554;6.736;2023-10-19T00:48:45;98891.00;;;12.20
37536;BMP180;23379;51.554;6.736;2023-10-19T00:51:16;98884.00;;;12.10
37536;BMP180;23379;51.554;6.736;2023-10-19T00:54:06;98868.00;;;12.10
37536;BMP180;23379;51.554;6.736;2023-10-19T00:56:38;98874.00;;;12.30
37536;BMP180;23379;51.554;6.736;2023-10-19T00:59:06;98883.00;;;12.30
37536;BMP180;23379;51.554;6.736;2023-10-19T01:01:40;98870.00;;;12.30
37536;BMP180;23379;51.554;6.736;2023-10-19T01:04:10;98873.00;;;12.20
37536;BMP180;23379;51.554;6.736;2023-10-19T01:06:40;98888.00;;;12.20
37536;BMP180;23379;51.554;6.736;2023-10-19T01:09:12;98875.00;;;12.20
37536;BMP180;23379;51.554;6.736;2023-10-19T01:11:42;98848.00;;;12.30
37536;BMP180;23379;51.554;6.736;2023-10-19T01:14:22;98875.00;;;12.20
37536;BMP180;23379;51.554;6.736;2023-10-19T01:16:52;98880.00;;;12.30
37536;BMP180;23379;51.554;6.736;2023-10-19T01:19:24;98863.00;;;12.20
37536;BMP180;23379;51.554;6.736;2023-10-19T01:21:52;98884.00;;;12.20
37536;BMP180;23379;51.554;6.736;2023-10-19T01:24:23;98860.00;;;12.20
37536;BMP180;23379;51.554;6.736;2023-10-19T01:27:06;98874.00;;;12.30
37536;BMP180;23379;51.554;6.736;2023-10-19T01:29:37;98849.00;;;12.40
37536;BMP180;23379;51.554;6.736;2023-10-19T01:32:07;98878.00;;;12.50
37536;BMP180;23379;51.554;6.736;2023-10-19T01:34:40;98867.00;;;12.50
37536;BMP180;23379;51.554;6.736;2023-10-19T01:37:05;98872.00;;;12.60
37536;BMP180;23379;51.554;6.736;2023-10-19T01:39:32;98854.00;;;12.50
37536;BMP180;23379;51.554;6.736;2023-10-19T01:42:00;98868.00;;;12.60
37536;BMP180;23379;51.554;6.736;2023-10-19T01:44:25;98865.00;;;12.60
37536;BMP180;23379;51.554;6.736;2023-10-19T01:46:51;98841.00;;;12.70
37536;BMP180;23379;51.554;6.736;2023-10-19T01:49:17;98851.00;;;12.80
37536;BMP180;23379;51.554;6.736;2023-10-19T01:51:52;98879.00;;;12.90
37536;BMP180;23379;51.554;6.736;2023-10-19T01:54:19;98871.00;;;13.00
37536;BMP180;23379;51.554;6.736;2023-10-19T01:56:55;98860.00;;;12.90
37536;BMP180;23379;51.554;6.736;2023-10-19T01:59:27;98849.00;;;13.00
37536;BMP180;23379;51.554;6.736;2023-10-19T02:01:54;98862.00;;;13.10
37536;BMP180;23379;51.554;6.736;2023-10-19T02:04:20;98859.00;;;13.30
37536;BMP180;23379;51.554;6.736;2023-10-19T02:06:47;98839.00;;;13.20
37536;BMP180;23379;51.554;6.736;2023-10-19T02:09:13;98839.00;;;13.20
37536;BMP180;23379;51.554;6.736;2023-10-19T02:11:55;98825.00;;;13.30
37536;BMP180;23379;51.554;6.736;2023-10-19T02:14:22;98835.00;;;13.40
37536;BMP180;23379;51.554;6.736;2023-10-19T02:16:52;98853.00;;;13.50
37536;BMP180;23379;51.554;6.736;2023-10-19T02:19:19;98848.00;;;13.40
37536;BMP180;23379;51.554;6.736;2023-10-19T02:21:48;98819.00;;;13.20
37536;BMP180;23379;51.554;6.736;2023-10-19T02:24:14;98840.00;;;13.40
37536;BMP180;23379;51.554;6.736;2023-10-19T02:26:41;98830.00;;;13.40
37536;BMP180;23379;51.554;6.736;2023-10-19T02:29:07;98835.00;;;13.60
37536;BMP180;23379;51.554;6.736;2023-10-19T02:31:38;98830.00;;;13.60
37536;BMP180;23379;51.554;6.736;2023-10-19T02:34:05;98817.00;;;13.60
37536;BMP180;23379;51.554;6.736;2023-10-19T02:36:32;98826.00;;;13.70
37536;BMP180;23379;51.554;6.736;2023-10-19T02:39:00;98824.00;;;13.90
37536;BMP180;23379;51.554;6.736;2023-10-19T02:41:29;98813.00;;;13.80
37536;BMP180;23379;51.554;6.736;2023-10-19T02:43:54;98823.00;;;13.80
37536;BMP180;23379;51.554;6.736;2023-10-19T02:46:37;98827.00;;;13.70
37536;BMP180;23379;51.554;6.736;2023-10-19T02:49:06;98831.00;;;14.00
37536;BMP180;23379;51.554;6.736;2023-10-19T02:51:39;98815.00;;;13.90
37536;BMP180;23379;51.554;6.736;2023-10-19T02:54:08;98804.00;;;13.90
37536;BMP180;23379;51.554;6.736;2023-10-19T02:56:34;98787.00;;;13.90
37536;BMP180;23379;51.554;6.736;2023-10-19T02:59:02;98818.00;;;13.80
37536;BMP180;23379;51.554;6.736;2023-10-19T03:01:30;98813.00;;;13.90
37536;BMP180;23379;51.554;6.736;2023-10-19T03:04:00;98750.00;;;14.00
37536;BMP180;23379;51.554;6.736;2023-10-19T03:06:30;98827.00;;;14.00
37536;BMP180;23379;51.554;6.736;2023-10-19T03:08:59;98820.00;;;13.90
37536;BMP180;23379;51.554;6.736;2023-10-19T03:11:30;98837.00;;;14.00
37536;BMP180;23379;51.554;6.736;2023-10-19T03:13:57;98821.00;;;14.00
37536;BMP180;23379;51.554;6.736;2023-10-19T03:16:23;98823.00;;;14.10
37536;BMP180;23379;51.554;6.736;2023-10-19T03:18:50;98823.00;;;14.00
37536;BMP180;23379;51.554;6.736;2023-10-19T03:21:18;98806.00;;;14.10
37536;BMP180;23379;51.554;6.736;2023-10-19T03:23:44;98788.00;;;14.10
37536;BMP180;23379;51.554;6.736;2023-10-19T03:26:10;98800.00;;;14.10
37536;BMP180;23379;51.554;6.736;2023-10-19T03:28:49;98814.00;;;14.10
37536;BMP180;23379;51.554;6.736;2023-10-19T03:31:21;98825.00;;;14.20
37536;BMP180;23379;51.554;6.736;2023-10-19T03:33:48;98812.00;;;14.10
37536;BMP180;23379;51.554;6.736;2023-10-19T03:36:15;98805.00;;;14.10
37536;BMP180;23379;51.554;6.736;2023-10-19T03:38:41;98794.00;;;14.10
37536;BMP180;23379;51.554;6.736;2023-10-19T03:41:09;98800.00;;;14.10
37536;BMP180;23379;51.554;6.736;2023-10-19T03:43:34;98816.00;;;14.10
37536;BMP180;23379;51.554;6.736;2023-10-19T03:46:03;98800.00;;;14.30
37536;BMP180;23379;51.554;6.736;2023-10-19T03:48:36;98806.00;;;14.40
37536;BMP180;23379;51.554;6.736;2023-10-19T03:51:04;98811.00;;;14.30
37536;BMP180;23379;51.554;6.736;2023-10-19T03:53:30;98799.00;;;14.40
37536;BMP180;23379;51.554;6.736;2023-10-19T03:56:04;98770.00;;;14.40
37536;BMP180;23379;51.554;6.736;2023-10-19T03:58:32;98751.00;;;14.50
37536;BMP180;23379;51.554;6.736;2023-10-19T04:00:57;98781.00;;;14.40
37536;BMP180;23379;51.554;6.736;2023-10-19T04:03:30;98797.00;;;14.50
37536;BMP180;23379;51.554;6.736;2023-10-19T04:05:56;98800.00;;;14.30
37536;BMP180;23379;51.554;6.736;2023-10-19T04:08:26;98799.00;;;14.30
37536;BMP180;23379;51.554;6.736;2023-10-19T04:10:52;98777.00;;;14.50
37536;BMP180;23379;51.554;6.736;2023-10-19T04:13:34;98762.00;;;14.50
37536;BMP180;23379;51.554;6.736;2023-10-19T04:16:00;98768.00;;;14.40
37536;BMP180;23379;51.554;6.736;2023-10-19T04:18:25;98784.00;;;14.50
37536;BMP180;23379;51.554;6.736;2023-10-19T04:20:51;98766.00;;;14.60
37536;BMP180;23379;51.554;6.736;2023-10-19T04:23:20;98768.00;;;14.60
37536;BMP180;23379;51.554;6.736;2023-10-19T04:25:52;98753.00;;;14.80
37536;BMP180;23379;51.554;6.736;2023-10-19T04:28:17;98737.00;;;14.70
37536;BMP180;23379;51.554;6.736;2023-10-19T04:30:47;98743.00;;;14.80
37536;BMP180;23379;51.554;6.736;2023-10-19T04:33:13;98771.00;;;14.80
37536;BMP180;23379;51.554;6.736;2023-10-19T04:35:41;98779.00;;;14.70
37536;BMP180;23379;51.554;6.736;2023-10-19T04:38:07;98767.00;;;14.70
37536;BMP180;23379;51.554;6.736;2023-10-19T04:40:32;98766.00;;;14.60
37536;BMP180;23379;51.554;6.736;2023-10-19T04:42:58;98742.00;;;14.70
37536;BMP180;23379;51.554;6.736;2023-10-19T04:45:23;98783.00;;;14.70
37536;BMP180;23379;51.554;6.736;2023-10-19T04:47:52;98783.00;;;14.70
37536;BMP180;23379;51.554;6.736;2023-10-19T04:50:17;98775.00;;;14.60
37536;BMP180;23379;51.554;6.736;2023-10-19T04:52:43;98763.00;;;14.70
37536;BMP180;23379;51.554;6.736;2023-10-19T04:55:08;98782.00;;;14.40
37536;BMP180;23379;51.554;6.736;2023-10-19T04:57:33;98757.00;;;14.70
37536;BMP180;23379;51.554;6.736;2023-10-19T04:59:59;98774.00;;;14.80
37536;BMP180;23379;51.554;6.736;2023-10-19T05:02:25;98777.00;;;14.90
37536;BMP180;23379;51.554;6.736;2023-10-19T05:04:50;98755.00;;;14.80
37536;BMP180;23379;51.554;6.736;2023-10-19T05:07:15;98762.00;;;14.60
37536;BMP180;23379;51.554;6.736;2023-10-19T05:09:44;98787.00;;;14.80
37536;BMP180;23379;51.554;6.736;2023-10-19T05:12:10;98784.00;;;14.80
37536;BMP180;23379;51.554;6.736;2023-10-19T05:14:36;98767.00;;;15.10
37536;BMP180;23379;51.554;6.736;2023-10-19T05:17:02;98763.00;;;14.90
37536;BMP180;23379;51.554;6.736;2023-10-19T05:19:31;98736.00;;;14.80
37536;BMP180;23379;51.554;6.736;2023-10-19T05:21:57;98761.00;;;15.00
37536;BMP180;23379;51.554;6.736;2023-10-19T05:24:22;98764.00;;;15.00
37536;BMP180;23379;51.554;6.736;2023-10-19T05:26:48;98782.00;;;14.90
37536;BMP180;23379;51.554;6.736;2023-10-19T05:29:13;98785.00;;;14.70
37536;BMP180;23379;51.554;6.736;2023-10-19T05:31:39;98770.00;;;14.70
37536;BMP180;23379;51.554;6.736;2023-10-19T05:34:04;98776.00;;;14.70
37536;BMP180;23379;51.554;6.736;2023-10-19T05:36:30;98775.00;;;14.80
37536;BMP180;23379;51.554;6.736;2023-10-19T05:38:57;98783.00;;;14.60
37536;BMP180;23379;51.554;6.736;2023-10-19T05:41:23;98770.00;;;14.90
37536;BMP180;23379;51.554;6.736;2023-10-19T05:43:48;98777.00;;;14.90
37536;BMP180;23379;51.554;6.736;2023-10-19T05:46:14;98775.00;;;14.60
37536;BMP180;23379;51.554;6.736;2023-10-19T05:48:43;98765.00;;;14.60
37536;BMP180;23379;51.554;6.736;2023-10-19T05:51:10;98770.00;;;14.60
37536;BMP180;23379;51.554;6.736;2023-10-19T05:53:36;98767.00;;;14.60
37536;BMP180;23379;51.554;6.736;2023-10-19T05:56:02;98766.00;;;14.60
37536;BMP180;23379;51.554;6.736;2023-10-19T05:58:28;98784.00;;;14.50
37536;BMP180;23379;51.554;6.736;2023-10-19T06:00:58;98795.00;;;14.50
37536;BMP180;23379;51.554;6.736;2023-10-19T06:03:23;98782.00;;;14.50
37536;BMP180;23379;51.554;6.736;2023-10-19T06:05:48;98787.00;;;14.40
37536;BMP180;23379;51.554;6.736;2023-10-19T06:08:14;98782.00;;;14.60
37536;BMP180;23379;51.554;6.736;2023-10-19T06:10:39;98795.00;;;14.40
37536;BMP180;23379;51.554;6.736;2023-10-19T06:13:05;98794.00;;;14.50
37536;BMP180;23379;51.554;6.736;2023-10-19T06:15:35;98796.00;;;14.70
37536;BMP180;23379;51.554;6.736;2023-10-19T06:18:00;98798.00;;;14.70
37536;BMP180;23379;51.554;6.736;2023-10-19T06:20:25;98814.00;;;14.70
37536;BMP180;23379;51.554;6.736;2023-10-19T06:22:56;98801.00;;;14.50
37536;BMP180;23379;51.554;6.736;2023-10-19T06:25:23;98823.00;;;14.80
37536;BMP180;23379;51.554;6.736;2023-10-19T06:27:55;98810.00;;;14.50
37536;BMP180;23379;51.554;6.736;2023-10-19T06:33:45;98757.00;;;14.70
37536;BMP180;23379;51.554;6.736;2023-10-19T06:36:10;98785.00;;;14.70
37536;BMP180;23379;51.554;6.736;2023-10-19T06:38:36;98805.00;;;14.70
37536;BMP180;23379;51.554;6.736;2023-10-19T06:41:10;98823.00;;;14.70
37536;BMP180;23379;51.554;6.736;2023-10-19T06:43:36;98824.00;;;14.70
37536;BMP180;23379;51.554;6.736;2023-10-19T06:46:01;98806.00;;;14.70
37536;BMP180;23379;51.554;6.736;2023-10-19T06:48:27;98816.00;;;14.90
37536;BMP180;23379;51.554;6.736;2023-10-19T06:50:52;98820.00;;;14.90
37536;BMP180;23379;51.554;6.736;2023-10-19T06:53:17;98805.00;;;14.80
37536;BMP180;23379;51.554;6.736;2023-10-19T06:55:43;98808.00;;;14.70
37536;BMP180;23379;51.554;6.736;2023-10-19T06:58:08;98831.00;;;14.90
37536;BMP180;23379;51.554;6.736;2023-10-19T07:00:34;98823.00;;;14.90
37536;BMP180;23379;51.554;6.736;2023-10-19T07:03:01;98817.00;;;14.90
37536;BMP180;23379;51.554;6.736;2023-10-19T07:05:27;98822.00;;;15.00
37536;BMP180;23379;51.554;6.736;2023-10-19T07:07:57;98847.00;;;14.80
37536;BMP180;23379;51.554;6.736;2023-10-19T07:10:24;98838.00;;;14.80
37536;BMP180;23379;51.554;6.736;2023-10-19T07:12:52;98830.00;;;14.80
37536;BMP180;23379;51.554;6.736;2023-10-19T07:15:19;98801.00;;;14.80
37536;BMP180;23379;51.554;6.736;2023-10-19T07:17:46;98841.00;;;14.80
37536;BMP180;23379;51.554;6.736;2023-10-19T07:20:13;98823.00;;;14.90
37536;BMP180;23379;51.554;6.736;2023-10-19T07:23:02;98857.00;;;15.00
37536;BMP180;23379;51.554;6.736;2023-10-19T07:25:33;98849.00;;;15.10
37536;BMP180;23379;51.554;6.736;2023-10-19T07:28:07;98856.00;;;15.10
37536;BMP180;23379;51.554;6.736;2023-10-19T07:30:33;98826.00;;;15.20
37536;BMP180;23379;51.554;6.736;2023-10-19T07:32:58;98840.00;;;15.20
37536;BMP180;23379;51.554;6.736;2023-10-19T07:35:24;98862.00;;;15.50
37536;BMP180;23379;51.554;6.736;2023-10-19T07:37:51;98856.00;;;15.40
37536;BMP180;23379;51.554;6.736;2023-10-19T07:40:17;98869.00;;;15.30
37536;BMP180;23379;51.554;6.736;2023-10-19T07:42:47;98867.00;;;15.30
37536;BMP180;23379;51.554;6.736;2023-10-19T07:45:14;98868.00;;;15.20
37536;BMP180;23379;51.554;6.736;2023-10-19T07:47:41;98852.00;;;15.30
37536;BMP180;23379;51.554;6.736;2023-10-19T07:50:08;98846.00;;;15.40
37536;BMP180;23379;51.554;6.736;2023-10-19T07:52:38;98858.00;;;15.40
37536;BMP180;23379;51.554;6.736;2023-10-19T07:55:05;98847.00;;;15.40
37536;BMP180;23379;51.554;6.736;2023-10-19T07:57:31;98845.00;;;15.50
37536;BMP180;23379;51.554;6.736;2023-10-19T07:59:57;98849.00;;;15.60
37536;BMP180;23379;51.554;6.736;2023-10-19T08:02:23;98848.00;;;15.80
37536;BMP180;23379;51.554;6.736;2023-10-19T08:04:50;98861.00;;;15.90
37536;BMP180;23379;51.554;6.736;2023-10-19T08:07:17;98848.00;;;15.90
37536;BMP180;23379;51.554;6.736;2023-10-19T08:09:42;98849.00;;;16.10
37536;BMP180;23379;51.554;6.736;2023-10-19T08:12:09;98841.00;;;16.10
37536;BMP180;23379;51.554;6.736;2023-10-19T08:14:34;98846.00;;;16.20
37536;BMP180;23379;51.554;6.736;2023-10-19T08:17:00;98837.00;;;16.70
37536;BMP180;23379;51.554;6.736;2023-10-19T08:19:27;98849.00;;;16.90
37536;BMP180;23379;51.554;6.736;2023-10-19T08:21:53;98850.00;;;17.20
37536;BMP180;23379;51.554;6.736;2023-10-19T08:24:18;98848.00;;;17.10
37536;BMP180;23379;51.554;6.736;2023-10-19T08:26:46;98858.00;;;17.30
37536;BMP180;23379;51.554;6.736;2023-10-19T08:29:12;98859.00;;;17.50
37536;BMP180;23379;51.554;6.736;2023-10-19T08:31:41;98853.00;;;17.40
37536;BMP180;23379;51.554;6.736;2023-10-19T08:34:10;98853.00;;;17.20
37536;BMP180;23379;51.554;6.736;2023-10-19T08:36:39;98850.00;;;17.10
37536;BMP180;23379;51.554;6.736;2023-10-19T08:39:09;98857.00;;;16.60
37536;BMP180;23379;51.554;6.736;2023-10-19T08:41:37;98847.00;;;16.50
37536;BMP180;23379;51.554;6.736;2023-10-19T08:44:05;98822.00;;;16.70
37536;BMP180;23379;51.554;6.736;2023-10-19T08:46:38;98842.00;;;16.50
37536;BMP180;23379;51.554;6.736;2023-10-19T08:49:05;98838.00;;;16.50
37536;BMP180;23379;51.554;6.736;2023-10-19T08:51:34;98834.00;;;16.50
37536;BMP180;23379;51.554;6.736;2023-10-19T08:54:01;98837.00;;;16.60
37536;BMP180;23379;51.554;6.736;2023-10-19T08:56:27;98822.00;;;16.70
37536;BMP180;23379;51.554;6.736;2023-10-19T08:58:53;98826.00;;;16.70
37536;BMP180;23379;51.554;6.736;2023-10-19T09:01:19;98827.00;;;16.80
37536;BMP180;23379;51.554;6.736;2023-10-19T09:03:45;98831.00;;;16.90
37536;BMP180;23379;51.554;6.736;2023-10-19T09:06:12;98851.00;;;16.90
37536;BMP180;23379;51.554;6.736;2023-10-19T09:08:37;98822.00;;;17.00
37536;BMP180;23379;51.554;6.736;2023-10-19T09:11:10;98812.00;;;16.90
37536;BMP180;23379;51.554;6.736;2023-10-19T09:13:48;98804.00;;;17.10
37536;BMP180;23379;51.554;6.736;2023-10-19T09:16:21;98802.00;;;17.20
37536;BMP180;23379;51.554;6.736;2023-10-19T09:18:47;98806.00;;;17.20
37536;BMP180;23379;51.554;6.736;2023-10-19T09:21:17;98828.00;;;17.10
37536;BMP180;23379;51.554;6.736;2023-10-19T09:23:50;98815.00;;;17.10
37536;BMP180;23379;51.554;6.736;2023-10-19T09:26:17;98825.00;;;17.70
37536;BMP180;23379;51.554;6.736;2023-10-19T09:28:46;98826.00;;;17.90
37536;BMP180;23379;51.554;6.736;2023-10-19T09:31:14;98814.00;;;17.90
37536;BMP180;23379;51.554;6.736;2023-10-19T09:33:41;98812.00;;;18.10
37536;BMP180;23379;51.554;6.736;2023-10-19T09:36:09;98832.00;;;17.80
37536;BMP180;23379;51.554;6.736;2023-10-19T09:38:51;98827.00;;;18.30
37536;BMP180;23379;51.554;6.736;2023-10-19T09:41:23;98824.00;;;18.30
37536;BMP180;23379;51.554;6.736;2023-10-19T09:43:57;98806.00;;;18.40
37536;BMP180;23379;51.554;6.736;2023-10-19T09:46:32;98795.00;;;18.60
37536;BMP180;23379;51.554;6.736;2023-10-19T09:49:00;98805.00;;;19.10
37536;BMP180;23379;51.554;6.736;2023-10-19T09:51:26;98813.00;;;19.30
37536;BMP180;23379;51.554;6.736;2023-10-19T09:54:01;98826.00;;;19.60
37536;BMP180;23379;51.554;6.736;2023-10-19T09:56:35;98820.00;;;19.20
37536;BMP180;23379;51.554;6.736;2023-10-19T09:59:06;98799.00;;;19.50
37536;BMP180;23379;51.554;6.736;2023-10-19T10:02:11;98822.00;;;19.50
37536;BMP180;23379;51.554;6.736;2023-10-19T10:04:41;98814.00;;;19.50
37536;BMP180;23379;51.554;6.736;2023-10-19T10:07:09;98812.00;;;19.30
37536;BMP180;23379;51.554;6.736;2023-10-19T10:09:39;98823.00;;;19.40
37536;BMP180;23379;51.554;6.736;2023-10-19T10:12:19;98784.00;;;19.50
37536;BMP180;23379;51.554;6.736;2023-10-19T10:15:03;98797.00;;;20.40
37536;BMP180;23379;51.554;6.736;2023-10-19T10:17:39;98803.00;;;22.40
37536;BMP180;23379;51.554;6.736;2023-10-19T10:22:35;98808.00;;;25.00
37536;BMP180;23379;51.554;6.736;2023-10-19T10:25:01;98814.00;;;25.40
37536;BMP180;23379;51.554;6.736;2023-10-19T10:27:27;98795.00;;;25.20
37536;BMP180;23379;51.554;6.736;2023-10-19T10:29:57;98825.00;;;24.60
37536;BMP180;23379;51.554;6.736;2023-10-19T10:32:42;98823.00;;;24.30
37536;BMP180;23379;51.554;6.736;2023-10-19T10:35:08;98797.00;;;23.80
37536;BMP180;23379;51.554;6.736;2023-10-19T10:37:38;98784.00;;;25.70
37536;BMP180;23379;51.554;6.736;2023-10-19T10:40:05;98771.00;;;24.90
37536;BMP180;23379;51.554;6.736;2023-10-19T10:42:31;98812.00;;;25.00
37536;BMP180;23379;51.554;6.736;2023-10-19T10:44:57;98788.00;;;24.60
37536;BMP180;23379;51.554;6.736;2023-10-19T10:47:23;98798.00;;;25.00
37536;BMP180;23379;51.554;6.736;2023-10-19T10:49:59;98811.00;;;25.80
37536;BMP180;23379;51.554;6.736;2023-10-19T10:52:33;98807.00;;;26.00
37536;BMP180;23379;51.554;6.736;2023-10-19T10:55:07;98804.00;;;24.20
37536;BMP180;23379;51.554;6.736;2023-10-19T10:57:36;98792.00;;;24.20
37536;BMP180;23379;51.554;6.736;2023-10-19T11:00:05;98793.00;;;25.00
37536;BMP180;23379;51.554;6.736;2023-10-19T11:02:44;98772.00;;;25.40
37536;BMP180;23379;51.554;6.736;2023-10-19T11:05:13;98800.00;;;24.60
37536;BMP180;23379;51.554;6.736;2023-10-19T11:07:39;98792.00;;;26.50
37536;BMP180;23379;51.554;6.736;2023-10-19T11:10:05;98754.00;;;27.90
37536;BMP180;23379;51.554;6.736;2023-10-19T11:12:31;98769.00;;;27.10
37536;BMP180;23379;51.554;6.736;2023-10-19T11:14:58;98793.00;;;27.90
37536;BMP180;23379;51.554;6.736;2023-10-19T11:17:24;98792.00;;;27.50
37536;BMP180;23379;51.554;6.736;2023-10-19T11:19:55;98787.00;;;24.80
37536;BMP180;23379;51.554;6.736;2023-10-19T11:22:22;98771.00;;;24.50
37536;BMP180;23379;51.554;6.736;2023-10-19T11:24:55;98762.00;;;25.30
37536;BMP180;23379;51.554;6.736;2023-10-19T11:27:38;98769.00;;;27.10
37536;BMP180;23379;51.554;6.736;2023-10-19T11:30:03;98756.00;;;29.00
37536;BMP180;23379;51.554;6.736;2023-10-19T11:32:36;98772.00;;;30.10
37536;BMP180;23379;51.554;6.736;2023-10-19T11:35:06;98736.00;;;29.10
37536;BMP180;23379;51.554;6.736;2023-10-19T11:37:51;98771.00;;;29.80
37536;BMP180;23379;51.554;6.736;2023-10-19T11:40:21;98740.00;;;27.00
37536;BMP180;23379;51.554;6.736;2023-10-19T11:42:47;98729.00;;;26.70
37536;BMP180;23379;51.554;6.736;2023-10-19T11:45:13;98769.00;;;25.20
37536;BMP180;23379;51.554;6.736;2023-10-19T11:47:38;98706.00;;;25.10
37536;BMP180;23379;51.554;6.736;2023-10-19T11:50:04;98753.00;;;24.30
37536;BMP180;23379;51.554;6.736;2023-10-19T11:52:30;98752.00;;;24.30
37536;BMP180;23379;51.554;6.736;2023-10-19T11:54:56;98732.00;;;24.10
37536;BMP180;23379;51.554;6.736;2023-10-19T11:57:23;98679.00;;;23.80
37536;BMP180;23379;51.554;6.736;2023-10-19T11:59:49;98719.00;;;23.50
37536;BMP180;23379;51.554;6.736;2023-10-19T12:02:18;98735.00;;;23.80
37536;BMP180;23379;51.554;6.736;2023-10-19T12:04:44;98674.00;;;23.70
37536;BMP180;23379;51.554;6.736;2023-10-19T12:07:10;98730.00;;;22.60
37536;BMP180;23379;51.554;6.736;2023-10-19T12:09:36;98749.00;;;22.70
37536;BMP180;23379;51.554;6.736;2023-10-19T12:12:01;98755.00;;;22.00
37536;BMP180;23379;51.554;6.736;2023-10-19T12:14:30;98721.00;;;21.40
37536;BMP180;23379;51.554;6.736;2023-10-19T12:16:58;98713.00;;;20.80
37536;BMP180;23379;51.554;6.736;2023-10-19T12:19:26;98726.00;;;20.80
37536;BMP180;23379;51.554;6.736;2023-10-19T12:21:52;98724.00;;;20.60
37536;BMP180;23379;51.554;6.736;2023-10-19T12:24:17;98740.00;;;20.40
37536;BMP180;23379;51.554;6.736;2023-10-19T12:26:43;98711.00;;;20.90
37536;BMP180;23379;51.554;6.736;2023-10-19T12:29:09;98686.00;;;21.00
37536;BMP180;23379;51.554;6.736;2023-10-19T12:31:36;98715.00;;;20.80
37536;BMP180;23379;51.554;6.736;2023-10-19T12:34:05;98725.00;;;20.70
37536;BMP180;23379;51.554;6.736;2023-10-19T12:40:19;98720.00;;;20.40
37536;BMP180;23379;51.554;6.736;2023-10-19T12:43:00;98743.00;;;20.10
37536;BMP180;23379;51.554;6.736;2023-10-19T12:45:28;98711.00;;;19.80
37536;BMP180;23379;51.554;6.736;2023-10-19T12:47:54;98719.00;;;19.90
37536;BMP180;23379;51.554;6.736;2023-10-19T12:50:20;98739.00;;;19.60
37536;BMP180;23379;51.554;6.736;2023-10-19T12:52:51;98737.00;;;19.20
37536;BMP180;23379;51.554;6.736;2023-10-19T12:55:18;98741.00;;;19.50
37536;BMP180;23379;51.554;6.736;2023-10-19T12:57:43;98709.00;;;19.50
37536;BMP180;23379;51.554;6.736;2023-10-19T13:00:09;98694.00;;;19.90
37536;BMP180;23379;51.554;6.736;2023-10-19T13:02:54;98687.00;;;19.60
37536;BMP180;23379;51.554;6.736;2023-10-19T13:05:35;98701.00;;;19.70
37536;BMP180;23379;51.554;6.736;2023-10-19T13:08:04;98691.00;;;19.30
37536;BMP180;23379;51.554;6.736;2023-10-19T13:10:31;98731.00;;;19.40
37536;BMP180;23379;51.554;6.736;2023-10-19T13:13:02;98695.00;;;19.60
37536;BMP180;23379;51.554;6.736;2023-10-19T13:15:35;98710.00;;;19.70
37536;BMP180;23379;51.554;6.736;2023-10-19T13:18:02;98713.00;;;19.20
37536;BMP180;23379;51.554;6.736;2023-10-19T13:20:29;98692.00;;;19.50
37536;BMP180;23379;51.554;6.736;2023-10-19T13:23:07;98697.00;;;19.00
37536;BMP180;23379;51.554;6.736;2023-10-19T13:25:39;98712.00;;;18.90
37536;BMP180;23379;51.554;6.736;2023-10-19T13:28:27;98700.00;;;18.60
37536;BMP180;23379;51.554;6.736;2023-10-19T13:30:53;98692.00;;;18.70
37536;BMP180;23379;51.554;6.736;2023-10-19T13:33:19;98711.00;;;18.60
37536;BMP180;23379;51.554;6.736;2023-10-19T13:35:46;98722.00;;;19.00
37536;BMP180;23379;51.554;6.736;2023-10-19T13:38:13;98694.00;;;18.80
37536;BMP180;23379;51.554;6.736;2023-10-19T13:40:39;98706.00;;;18.70
37536;BMP180;23379;51.554;6.736;2023-10-19T13:43:06;98716.00;;;18.80
37536;BMP180;23379;51.554;6.736;2023-10-19T13:45:33;98683.00;;;18.30
37536;BMP180;23379;51.554;6.736;2023-10-19T13:48:04;98704.00;;;18.40
37536;BMP180;23379;51.554;6.736;2023-10-19T13:50:30;98673.00;;;18.40
37536;BMP180;23379;51.554;6.736;2023-10-19T13:52:56;98684.00;;;18.50
37536;BMP180;23379;51.554;6.736;2023-10-19T13:55:22;98705.00;;;18.30
37536;BMP180;23379;51.554;6.736;2023-10-19T13:57:49;98698.00;;;18.20
37536;BMP180;23379;51.554;6.736;2023-10-19T14:00:16;98694.00;;;18.60
37536;BMP180;23379;51.554;6.736;2023-10-19T14:02:46;98693.00;;;18.30
37536;BMP180;23379;51.554;6.736;2023-10-19T14:05:14;98687.00;;;18.40
37536;BMP180;23379;51.554;6.736;2023-10-19T14:07:40;98652.00;;;18.40
37536;BMP180;23379;51.554;6.736;2023-10-19T14:10:09;98680.00;;;18.10
37536;BMP180;23379;51.554;6.736;2023-10-19T14:12:39;98654.00;;;17.90
37536;BMP180;23379;51.554;6.736;2023-10-19T14:15:15;98639.00;;;17.90
37536;BMP180;23379;51.554;6.736;2023-10-19T14:17:44;98687.00;;;17.90
37536;BMP180;23379;51.554;6.736;2023-10-19T14:20:14;98660.00;;;17.80
37536;BMP180;23379;51.554;6.736;2023-10-19T14:22:45;98652.00;;;17.70
37536;BMP180;23379;51.554;6.736;2023-10-19T14:25:12;98658.00;;;17.80
37536;BMP180;23379;51.554;6.736;2023-10-19T14:30:05;98617.00;;;17.70